createdAt,value
2018-09-01T00:00:09.136Z,4.30
2018-09-01T00:02:36.132Z,5.37
2018-09-01T00:05:03.311Z,5.27
2018-09-01T00:07:30.252Z,5.37
2018-09-01T00:09:57.153Z,5.10
2018-09-01T00:12:24.069Z,5.63
2018-09-01T00:14:50.957Z,4.33
2018-09-01T00:17:23.666Z,4.37
2018-09-01T00:19:50.567Z,4.47
2018-09-01T00:22:17.447Z,5.20
2018-09-01T00:24:44.356Z,5.07
2018-09-01T00:27:11.238Z,4.97
2018-09-01T00:29:38.130Z,4.27
2018-09-01T00:32:05.060Z,4.80
2018-09-01T00:34:31.956Z,5.43
2018-09-01T00:36:58.831Z,7.03
2018-09-01T00:39:25.732Z,5.40
2018-09-01T00:41:52.634Z,5.03
2018-09-01T00:44:19.537Z,4.60
2018-09-01T00:46:46.423Z,4.33
2018-09-01T00:49:13.316Z,5.40
2018-09-01T00:51:40.441Z,4.60
2018-09-01T00:54:07.331Z,4.43
2018-09-01T00:56:34.396Z,4.70
2018-09-01T00:59:01.436Z,4.60
2018-09-01T01:01:28.616Z,5.43
2018-09-01T01:03:56.148Z,5.07
2018-09-01T01:06:23.037Z,4.33
2018-09-01T01:08:50.153Z,4.47
2018-09-01T01:11:17.529Z,4.77
2018-09-01T01:13:44.522Z,4.40
2018-09-01T01:16:11.408Z,4.10
2018-09-01T01:18:38.296Z,5.03
2018-09-01T01:21:08.359Z,4.93
2018-09-01T01:23:35.468Z,6.90
2018-09-01T01:26:02.387Z,4.63
2018-09-01T01:28:31.121Z,4.37
2018-09-01T01:30:58.056Z,5.00
2018-09-01T01:33:24.963Z,5.00
2018-09-01T01:35:51.869Z,4.87
2018-09-01T01:38:18.810Z,5.37
2018-09-01T01:40:46.275Z,5.27
2018-09-01T01:43:13.185Z,4.50
2018-09-01T01:45:40.104Z,4.87
2018-09-01T01:48:06.993Z,4.00
2018-09-01T01:50:33.880Z,4.93
2018-09-01T01:53:00.783Z,4.97
2018-09-01T01:55:27.699Z,4.80
2018-09-01T01:57:54.596Z,4.87
2018-09-01T02:00:21.501Z,4.90
2018-09-01T02:02:48.668Z,5.87
2018-09-01T02:05:18.252Z,5.30
2018-09-01T02:07:46.112Z,5.30
2018-09-01T02:10:13.382Z,5.00
2018-09-01T02:12:40.368Z,5.93
2018-09-01T02:15:07.296Z,7.10
2018-09-01T02:17:34.287Z,7.77
2018-09-01T02:20:01.220Z,6.67
2018-09-01T02:22:28.111Z,6.70
2018-09-01T02:24:55.017Z,9.10
2018-09-01T02:27:21.950Z,7.30
2018-09-01T02:29:49.217Z,6.77
2018-09-01T02:32:17.238Z,8.77
2018-09-01T02:34:44.168Z,10.83
2018-09-01T02:37:11.064Z,12.07
2018-09-01T02:39:37.971Z,12.30
2018-09-01T02:42:05.048Z,14.20
2018-09-01T02:44:31.929Z,13.83
2018-09-01T02:46:58.831Z,12.43
2018-09-01T02:49:25.712Z,14.73
2018-09-01T02:51:52.626Z,10.23
2018-09-01T02:54:19.516Z,13.37
2018-09-01T02:56:46.408Z,12.27
2018-09-01T02:59:13.297Z,14.17
2018-09-01T03:01:40.241Z,12.90
2018-09-01T03:04:07.527Z,18.87
2018-09-01T03:06:57.113Z,15.23
2018-09-01T03:09:24.351Z,16.63
2018-09-01T03:11:52.036Z,32.13
2018-09-01T03:14:19.167Z,14.57
2018-09-01T03:16:46.152Z,12.77
2018-09-01T03:19:13.061Z,21.07
2018-09-01T03:21:42.836Z,8.70
2018-09-01T03:24:09.724Z,9.37
2018-09-01T03:26:36.626Z,17.37
2018-09-01T03:29:03.538Z,23.53
2018-09-01T03:31:30.449Z,23.03
2018-09-01T03:33:57.352Z,21.00
2018-09-01T03:36:24.250Z,12.00
2018-09-01T03:38:51.116Z,41.57
2018-09-01T03:41:18.026Z,14.73
2018-09-01T03:43:44.931Z,17.40
2018-09-01T03:46:11.833Z,23.30
2018-09-01T03:48:39.223Z,29.33
2018-09-01T03:51:06.173Z,31.20
2018-09-01T03:53:33.048Z,19.80
2018-09-01T03:56:00.061Z,20.47
2018-09-01T03:58:26.967Z,29.03
2018-09-01T04:00:53.924Z,33.27
2018-09-01T04:03:21.330Z,23.03
2018-09-01T04:05:48.243Z,29.53
2018-09-01T04:08:15.116Z,33.90
2018-09-01T04:10:42.155Z,34.60
2018-09-01T04:13:09.028Z,39.50
2018-09-01T04:15:35.914Z,29.10
2018-09-01T04:18:02.969Z,27.73
2018-09-01T04:20:29.849Z,32.03
2018-09-01T04:22:56.741Z,35.40
2018-09-01T04:25:23.663Z,29.60
2018-09-01T04:27:50.579Z,37.27
2018-09-01T04:30:17.485Z,28.27
2018-09-01T04:32:44.382Z,22.80
2018-09-01T04:35:11.256Z,28.30
2018-09-01T04:37:38.154Z,31.63
2018-09-01T04:40:05.236Z,25.37
2018-09-01T04:42:32.152Z,16.97
2018-09-01T04:44:59.049Z,24.77
2018-09-01T04:47:25.936Z,28.23
2018-09-01T04:49:52.833Z,38.13
2018-09-01T04:52:19.725Z,36.57
2018-09-01T04:54:46.628Z,24.90
2018-09-01T04:57:13.540Z,21.10
2018-09-01T04:59:40.455Z,20.90
2018-09-01T05:02:07.388Z,30.80
2018-09-01T05:04:34.288Z,10.90
2018-09-01T05:07:01.200Z,25.03
2018-09-01T05:09:28.077Z,28.97
2018-09-01T05:11:55.031Z,30.80
2018-09-01T05:14:21.961Z,19.30
2018-09-01T05:16:48.899Z,15.70
2018-09-01T05:19:15.848Z,15.50
2018-09-01T05:21:42.784Z,9.10
2018-09-01T05:24:09.680Z,8.80
2018-09-01T05:26:36.569Z,16.87
2018-09-01T05:29:03.469Z,17.00
2018-09-01T05:31:30.349Z,15.83
2018-09-01T05:33:57.269Z,27.07
2018-09-01T05:36:24.204Z,14.40
2018-09-01T05:38:51.053Z,21.90
2018-09-01T05:41:17.948Z,27.77
2018-09-01T05:43:44.854Z,36.50
2018-09-01T05:46:11.716Z,24.63
2018-09-01T05:48:38.613Z,22.80
2018-09-01T05:51:05.529Z,17.63
2018-09-01T05:53:32.449Z,21.37
2018-09-01T05:55:59.340Z,9.27
2018-09-01T05:58:26.261Z,16.30
2018-09-01T06:00:53.195Z,16.23
2018-09-01T06:03:20.101Z,7.47
2018-09-01T06:05:47.782Z,25.00
2018-09-01T06:08:14.864Z,17.13
2018-09-01T06:10:41.736Z,20.63
2018-09-01T06:13:08.632Z,19.43
2018-09-01T06:15:35.523Z,15.33
2018-09-01T06:18:02.477Z,10.37
2018-09-01T06:20:29.308Z,24.20
2018-09-01T06:22:56.200Z,12.83
2018-09-01T06:25:23.093Z,19.60
2018-09-01T06:27:51.621Z,18.20
2018-09-01T06:30:22.634Z,24.30
2018-09-01T06:32:49.583Z,27.97
2018-09-01T06:37:50.052Z,15.17
2018-09-01T06:40:16.956Z,18.30
2018-09-01T06:42:43.868Z,9.00
2018-09-01T06:45:10.766Z,15.53
2018-09-01T06:47:37.669Z,13.93
2018-09-01T06:50:04.689Z,17.83
2018-09-01T06:52:31.601Z,13.90
2018-09-01T06:54:58.478Z,11.67
2018-09-01T06:57:25.398Z,12.47
2018-09-01T06:59:52.353Z,12.70
2018-09-01T07:02:19.228Z,13.17
2018-09-01T07:04:46.136Z,15.20
2018-09-01T07:07:13.000Z,12.50
2018-09-01T07:09:39.872Z,11.80
2018-09-01T07:12:06.746Z,14.60
2018-09-01T07:14:33.629Z,11.17
2018-09-01T07:17:00.737Z,13.07
2018-09-01T07:19:27.629Z,12.97
2018-09-01T07:21:54.501Z,9.43
2018-09-01T07:24:21.389Z,10.87
2018-09-01T07:26:48.269Z,9.20
2018-09-01T07:29:15.153Z,10.83
2018-09-01T07:31:42.647Z,10.30
2018-09-01T07:34:09.645Z,9.00
2018-09-01T07:36:36.535Z,9.43
2018-09-01T07:39:04.373Z,6.07
2018-09-01T07:41:31.274Z,8.53
2018-09-01T07:43:58.157Z,8.10
2018-09-01T07:46:25.065Z,9.10
2018-09-01T07:48:51.979Z,8.63
2018-09-01T07:51:18.852Z,9.03
2018-09-01T07:53:45.813Z,9.07
2018-09-01T07:56:12.849Z,7.20
2018-09-01T07:58:39.737Z,8.33
2018-09-01T08:01:06.620Z,6.37
2018-09-01T08:03:33.517Z,7.80
2018-09-01T08:06:00.394Z,7.87
2018-09-01T08:08:27.285Z,8.83
2018-09-01T08:10:54.216Z,7.00
2018-09-01T08:13:21.146Z,6.53
2018-09-01T08:15:48.034Z,5.30
2018-09-01T08:18:14.920Z,6.93
2018-09-01T08:20:41.829Z,5.57
2018-09-01T08:23:08.741Z,5.60
2018-09-01T08:25:35.682Z,6.13
2018-09-01T08:28:02.605Z,6.00
2018-09-01T08:30:29.554Z,5.73
2018-09-01T08:32:56.452Z,5.60
2018-09-01T08:35:23.344Z,5.67
2018-09-01T08:37:50.243Z,6.10
2018-09-01T08:40:17.208Z,5.27
2018-09-01T08:42:44.057Z,5.23
2018-09-01T08:45:10.989Z,4.40
2018-09-01T08:47:37.881Z,4.30
2018-09-01T08:50:04.869Z,3.97
2018-09-01T08:52:31.739Z,3.70
2018-09-01T08:54:58.624Z,3.30
2018-09-01T08:57:25.509Z,3.50
2018-09-01T08:59:52.389Z,3.37
2018-09-01T09:02:19.285Z,3.80
2018-09-01T09:04:46.248Z,3.97
2018-09-01T09:07:13.136Z,3.90
2018-09-01T09:09:40.065Z,3.60
2018-09-01T09:12:06.937Z,3.43
2018-09-01T09:14:33.857Z,3.63
2018-09-01T09:17:01.129Z,3.10
2018-09-01T09:19:28.024Z,3.00
2018-09-01T09:21:54.935Z,2.87
2018-09-01T09:24:21.890Z,2.73
2018-09-01T09:26:48.825Z,2.77
2018-09-01T09:29:15.736Z,2.47
2018-09-01T09:31:42.608Z,2.17
2018-09-01T09:34:09.484Z,2.60
2018-09-01T09:36:36.363Z,2.50
2018-09-01T09:39:04.957Z,2.57
2018-09-01T09:41:31.840Z,2.53
2018-09-01T09:43:58.708Z,3.13
2018-09-01T09:46:25.590Z,2.50
2018-09-01T09:48:52.520Z,2.60
2018-09-01T09:51:19.481Z,2.60
2018-09-01T09:53:46.969Z,2.17
2018-09-01T09:56:13.889Z,2.60
2018-09-01T09:58:40.827Z,2.50
2018-09-01T10:01:13.504Z,2.70
2018-09-01T10:03:40.393Z,2.70
2018-09-01T10:06:07.281Z,2.43
2018-09-01T10:08:34.162Z,2.43
2018-09-01T10:11:01.165Z,2.73
2018-09-01T10:13:28.001Z,2.60
2018-09-01T10:15:54.943Z,2.60
2018-09-01T10:18:21.788Z,3.00
2018-09-01T10:20:48.708Z,2.53
2018-09-01T10:23:15.589Z,2.57
2018-09-01T10:25:42.497Z,2.83
2018-09-01T10:28:09.410Z,2.77
2018-09-01T10:30:36.318Z,3.17
2018-09-01T10:33:03.276Z,2.77
2018-09-01T10:35:30.200Z,2.53
2018-09-01T10:37:57.090Z,2.40
2018-09-01T10:40:23.986Z,2.60
2018-09-01T10:42:50.976Z,2.27
2018-09-01T10:45:17.852Z,2.20
2018-09-01T10:47:45.067Z,2.27
2018-09-01T10:50:11.928Z,2.60
2018-09-01T10:52:38.801Z,2.67
2018-09-01T10:55:05.741Z,2.80
2018-09-01T10:57:32.644Z,2.50
2018-09-01T10:59:59.530Z,2.50
2018-09-01T11:02:33.313Z,2.47
2018-09-01T11:05:00.247Z,2.20
2018-09-01T11:07:27.120Z,2.43
2018-09-01T11:09:53.993Z,2.30
2018-09-01T11:12:21.148Z,2.23
2018-09-01T11:14:48.012Z,2.60
2018-09-01T11:17:14.938Z,2.50
2018-09-01T11:19:41.848Z,2.27
2018-09-01T11:22:08.769Z,2.33
2018-09-01T11:24:35.654Z,2.70
2018-09-01T11:27:02.577Z,2.00
2018-09-01T11:29:29.453Z,2.03
2018-09-01T11:31:56.369Z,2.00
2018-09-01T11:34:23.326Z,2.20
2018-09-01T11:36:50.326Z,2.23
2018-09-01T11:39:17.121Z,2.40
2018-09-01T11:41:44.050Z,2.37
2018-09-01T11:44:10.948Z,2.03
2018-09-01T11:46:37.841Z,1.97
2018-09-01T11:49:04.751Z,2.20
2018-09-01T11:51:31.677Z,2.13
2018-09-01T11:53:58.611Z,2.03
2018-09-01T11:56:25.536Z,2.50
2018-09-01T11:58:52.536Z,2.30
2018-09-01T12:01:19.441Z,2.20
2018-09-01T12:03:46.348Z,2.33
2018-09-01T12:06:13.362Z,1.90
2018-09-01T12:08:40.233Z,1.83
2018-09-01T12:11:07.149Z,2.20
2018-09-01T12:13:34.041Z,2.03
2018-09-01T12:16:00.970Z,2.23
2018-09-01T12:18:27.902Z,2.30
2018-09-01T12:20:54.810Z,2.20
2018-09-01T12:23:21.738Z,2.23
2018-09-01T12:25:48.625Z,1.80
2018-09-01T12:28:15.601Z,1.97
2018-09-01T12:30:42.470Z,2.03
2018-09-01T12:33:09.438Z,1.83
2018-09-01T12:35:36.321Z,2.50
2018-09-01T12:38:03.272Z,2.10
2018-09-01T12:40:30.153Z,2.17
2018-09-01T12:42:57.048Z,2.13
2018-09-01T12:45:23.939Z,2.17
2018-09-01T12:47:57.760Z,2.20
2018-09-01T12:50:24.659Z,2.00
2018-09-01T12:52:51.549Z,2.53
2018-09-01T12:55:18.473Z,2.23
2018-09-01T12:57:45.372Z,2.20
2018-09-01T13:00:12.317Z,2.17
2018-09-01T13:02:39.239Z,2.10
2018-09-01T13:05:06.200Z,2.33
2018-09-01T13:07:33.126Z,2.30
2018-09-01T13:10:00.019Z,2.20
2018-09-01T13:12:26.918Z,2.20
2018-09-01T13:14:53.801Z,2.00
2018-09-01T13:17:20.719Z,2.10
2018-09-01T13:19:47.618Z,2.00
2018-09-01T13:22:14.504Z,1.93
2018-09-01T13:24:41.435Z,2.00
2018-09-01T13:27:08.338Z,2.53
2018-09-01T13:29:35.245Z,2.07
2018-09-01T13:32:02.259Z,2.07
2018-09-01T13:34:29.263Z,2.20
2018-09-01T13:36:56.097Z,2.20
2018-09-01T13:39:22.991Z,2.20
2018-09-01T13:41:49.914Z,2.37
2018-09-01T13:44:17.223Z,1.97
2018-09-01T13:46:44.124Z,2.07
2018-09-01T13:49:11.049Z,2.00
2018-09-01T13:51:37.966Z,2.13
2018-09-01T13:54:04.974Z,2.40
2018-09-01T13:56:31.941Z,2.10
2018-09-01T13:58:58.831Z,2.27
2018-09-01T14:01:25.738Z,2.57
2018-09-01T14:03:52.637Z,2.00
2018-09-01T14:06:19.512Z,2.43
2018-09-01T14:08:46.447Z,2.20
2018-09-01T14:11:13.471Z,2.00
2018-09-01T14:13:40.402Z,1.90
2018-09-01T14:16:07.365Z,2.17
2018-09-01T14:18:34.300Z,2.50
2018-09-01T14:21:01.215Z,2.20
2018-09-01T14:23:28.189Z,2.00
2018-09-01T14:25:55.158Z,1.90
2018-09-01T14:28:22.210Z,2.10
2018-09-01T14:30:49.392Z,1.97
2018-09-01T14:33:16.315Z,1.97
2018-09-01T14:35:43.264Z,2.10
2018-09-01T14:38:10.149Z,2.00
2018-09-01T14:40:37.133Z,1.80
2018-09-01T14:43:04.265Z,2.00
2018-09-01T14:45:31.373Z,2.10
2018-09-01T14:47:58.279Z,1.90
2018-09-01T14:50:25.182Z,2.00
2018-09-01T14:52:52.137Z,1.90
2018-09-01T14:55:19.048Z,2.00
2018-09-01T14:57:45.974Z,1.90
2018-09-01T15:00:12.885Z,2.00
2018-09-01T15:02:39.914Z,1.97
2018-09-01T15:05:06.852Z,2.07
2018-09-01T15:07:33.876Z,2.20
2018-09-01T15:10:00.824Z,2.17
2018-09-01T15:12:27.838Z,2.13
2018-09-01T15:14:54.865Z,2.37
2018-09-01T15:17:21.789Z,2.20
2018-09-01T15:19:48.892Z,2.30
2018-09-01T15:22:15.777Z,1.90
2018-09-01T15:24:42.719Z,2.07
2018-09-01T15:27:09.662Z,2.00
2018-09-01T15:29:36.577Z,2.07
2018-09-01T15:32:03.510Z,1.87
2018-09-01T15:34:30.400Z,2.10
2018-09-01T15:36:57.321Z,2.40
2018-09-01T15:39:24.301Z,2.00
2018-09-01T15:41:51.321Z,2.40
2018-09-01T15:44:18.288Z,2.50
2018-09-01T15:46:45.181Z,2.40
2018-09-01T15:49:12.115Z,1.70
2018-09-01T15:51:39.028Z,1.93
2018-09-01T15:54:05.944Z,1.97
2018-09-01T15:56:33.012Z,2.40
2018-09-01T15:58:59.849Z,2.10
2018-09-01T16:01:26.741Z,1.97
2018-09-01T16:04:00.544Z,2.20
2018-09-01T16:06:27.465Z,2.50
2018-09-01T16:08:54.369Z,2.30
2018-09-01T16:11:21.270Z,2.47
2018-09-01T16:13:48.144Z,2.47
2018-09-01T16:16:15.034Z,2.50
2018-09-01T16:18:41.932Z,2.53
2018-09-01T16:21:08.888Z,2.40
2018-09-01T16:23:35.802Z,2.40
2018-09-01T16:26:02.708Z,2.43
2018-09-01T16:28:29.602Z,2.90
2018-09-01T16:30:56.548Z,2.80
2018-09-01T16:33:23.469Z,3.00
2018-09-01T16:35:50.408Z,2.40
2018-09-01T16:38:17.404Z,3.20
2018-09-01T16:40:44.337Z,2.97
2018-09-01T16:43:11.229Z,3.10
2018-09-01T16:45:38.133Z,3.00
2018-09-01T16:48:05.048Z,2.57
2018-09-01T16:50:31.964Z,2.80
2018-09-01T16:52:58.868Z,2.77
2018-09-01T16:55:25.765Z,2.97
2018-09-01T16:57:52.648Z,2.93
2018-09-01T17:00:19.542Z,3.33
2018-09-01T17:02:46.452Z,2.70
2018-09-01T17:05:13.360Z,3.47
2018-09-01T17:07:40.256Z,2.63
2018-09-01T17:10:07.265Z,2.53
2018-09-01T17:12:34.216Z,3.23
2018-09-01T17:15:01.220Z,2.90
2018-09-01T17:17:28.321Z,3.00
2018-09-01T17:19:55.216Z,2.90
2018-09-01T17:22:22.965Z,2.60
2018-09-01T17:24:49.910Z,2.90
2018-09-01T17:27:16.820Z,2.90
2018-09-01T17:29:43.768Z,2.90
2018-09-01T17:32:10.691Z,3.10
2018-09-01T17:34:37.588Z,3.00
2018-09-01T17:37:04.565Z,2.73
2018-09-01T17:39:31.478Z,2.83
2018-09-01T17:41:58.392Z,3.00
2018-09-01T17:44:25.300Z,3.17
2018-09-01T17:46:52.216Z,3.23
2018-09-01T17:49:19.103Z,2.83
2018-09-01T17:51:46.017Z,3.17
2018-09-01T17:54:12.915Z,3.40
2018-09-01T17:56:39.836Z,3.10
2018-09-01T17:59:06.741Z,3.20
2018-09-01T18:01:34.013Z,3.23
2018-09-01T18:04:00.924Z,3.70
2018-09-01T18:06:27.849Z,3.40
2018-09-01T18:08:54.764Z,3.13
2018-09-01T18:11:21.676Z,3.80
2018-09-01T18:13:48.832Z,3.53
2018-09-01T18:16:15.757Z,3.40
2018-09-01T18:18:42.668Z,3.33
2018-09-01T18:21:09.568Z,3.20
2018-09-01T18:23:36.508Z,3.40
2018-09-01T18:26:03.405Z,3.50
2018-09-01T18:28:30.313Z,2.90
2018-09-01T18:30:57.225Z,3.60
2018-09-01T18:33:24.123Z,3.53
2018-09-01T18:35:51.051Z,3.57
2018-09-01T18:38:17.964Z,3.93
2018-09-01T18:40:44.880Z,3.60
2018-09-01T18:43:11.793Z,3.57
2018-09-01T18:45:38.705Z,3.50
2018-09-01T18:48:05.589Z,4.13
2018-09-01T18:50:32.513Z,3.67
2018-09-01T18:52:59.421Z,3.90
2018-09-01T18:55:26.313Z,4.20
2018-09-01T18:57:53.192Z,4.43
2018-09-01T19:00:20.084Z,5.03
2018-09-01T19:02:47.273Z,4.70
2018-09-01T19:05:14.157Z,5.80
2018-09-01T19:07:41.070Z,6.20
2018-09-01T19:10:07.988Z,6.20
2018-09-01T19:12:34.901Z,5.70
2018-09-01T19:15:01.773Z,5.70
2018-09-01T19:17:28.677Z,6.00
2018-09-01T19:19:55.553Z,6.13
2018-09-01T19:22:22.470Z,6.70
2018-09-01T19:24:49.369Z,6.00
2018-09-01T19:27:16.337Z,5.40
2018-09-01T19:29:43.226Z,5.73
2018-09-01T19:32:10.111Z,5.40
2018-09-01T19:34:36.986Z,4.97
2018-09-01T19:37:03.877Z,4.90
2018-09-01T19:39:30.780Z,5.27
2018-09-01T19:41:57.699Z,4.80
2018-09-01T19:44:24.580Z,5.10
2018-09-01T19:46:51.497Z,4.70
2018-09-01T19:49:18.388Z,4.90
2018-09-01T19:51:45.306Z,4.80
2018-09-01T19:54:12.193Z,5.17
2018-09-01T19:56:39.109Z,4.10
2018-09-01T19:59:06.071Z,4.77
2018-09-01T20:01:32.969Z,4.20
2018-09-01T20:03:59.843Z,4.67
2018-09-01T20:06:26.777Z,4.63
2018-09-01T20:08:53.664Z,5.03
2018-09-01T20:11:20.681Z,5.43
2018-09-01T20:13:47.605Z,9.57
2018-09-01T20:16:14.544Z,7.03
2018-09-01T20:18:41.437Z,6.63
2018-09-01T20:21:08.417Z,7.13
2018-09-01T20:23:35.348Z,7.53
2018-09-01T20:26:02.277Z,8.23
2018-09-01T20:28:29.173Z,7.27
2018-09-01T20:30:56.056Z,7.00
2018-09-01T20:33:22.952Z,6.03
2018-09-01T20:35:55.758Z,6.13
2018-09-01T20:38:23.852Z,6.30
2018-09-01T20:40:50.736Z,6.07
2018-09-01T20:43:17.642Z,5.53
2018-09-01T20:45:44.725Z,5.83
2018-09-01T20:48:11.629Z,5.57
2018-09-01T20:50:38.529Z,6.03
2018-09-01T20:53:05.434Z,5.70
2018-09-01T20:55:32.313Z,5.40
2018-09-01T20:57:59.214Z,5.67
2018-09-01T21:00:26.127Z,5.43
2018-09-01T21:02:53.026Z,6.87
2018-09-01T21:05:19.949Z,6.87
2018-09-01T21:07:46.877Z,6.87
2018-09-01T21:10:13.783Z,6.70
2018-09-01T21:12:40.802Z,7.03
2018-09-01T21:15:07.744Z,8.40
2018-09-01T21:17:34.680Z,8.40
2018-09-01T21:20:01.917Z,8.77
2018-09-01T21:22:28.848Z,8.00
2018-09-01T21:24:55.766Z,7.50
2018-09-01T21:27:22.669Z,8.23
2018-09-01T21:29:49.564Z,8.53
2018-09-01T21:32:16.476Z,8.83
2018-09-01T21:34:43.380Z,8.30
2018-09-01T21:37:10.284Z,8.70
2018-09-01T21:39:37.186Z,8.80
2018-09-01T21:42:04.146Z,9.07
2018-09-01T21:44:31.068Z,9.50
2018-09-01T21:46:57.957Z,8.87
2018-09-01T21:49:24.876Z,8.57
2018-09-01T21:51:51.788Z,8.90
2018-09-01T21:54:18.704Z,8.40
2018-09-01T21:56:45.621Z,7.77
2018-09-01T21:59:12.533Z,7.83
2018-09-01T22:01:39.421Z,8.00
2018-09-01T22:04:06.328Z,7.60
2018-09-01T22:06:33.213Z,7.67
2018-09-01T22:09:00.325Z,7.53
2018-09-01T22:11:27.248Z,7.57
2018-09-01T22:13:54.149Z,6.83
2018-09-01T22:16:21.051Z,7.47
2018-09-01T22:18:47.992Z,7.97
2018-09-01T22:21:14.907Z,7.97
2018-09-01T22:23:41.818Z,6.90
2018-09-01T22:26:08.845Z,7.07
2018-09-01T22:28:35.838Z,6.77
2018-09-01T22:31:02.950Z,6.67
2018-09-01T22:33:29.845Z,7.07
2018-09-01T22:35:56.906Z,6.63
2018-09-01T22:38:23.840Z,7.03
2018-09-01T22:40:50.796Z,7.73
2018-09-01T22:43:17.722Z,7.67
2018-09-01T22:45:44.616Z,8.57
2018-09-01T22:48:11.512Z,7.20
2018-09-01T22:50:38.394Z,8.00
2018-09-01T22:53:05.344Z,7.90
2018-09-01T22:55:32.230Z,7.37
2018-09-01T22:57:59.185Z,7.53
2018-09-01T23:00:26.081Z,7.63
2018-09-01T23:02:52.973Z,7.10
2018-09-01T23:05:20.429Z,7.30
2018-09-01T23:07:47.385Z,7.80
2018-09-01T23:10:14.312Z,8.77
2018-09-01T23:12:41.261Z,8.87
2018-09-01T23:15:08.206Z,8.20
2018-09-01T23:17:35.093Z,8.03
2018-09-01T23:20:02.057Z,8.27
2018-09-01T23:22:28.962Z,8.60
2018-09-01T23:24:55.892Z,7.97
2018-09-01T23:27:22.809Z,8.00
2018-09-01T23:29:49.715Z,7.33
2018-09-01T23:32:16.609Z,6.93
2018-09-01T23:34:43.505Z,7.40
2018-09-01T23:37:10.402Z,7.70
2018-09-01T23:39:37.302Z,8.33
2018-09-01T23:42:04.197Z,9.00
2018-09-01T23:44:31.136Z,9.53
2018-09-01T23:46:58.048Z,9.63
2018-09-01T23:49:24.953Z,9.13
2018-09-01T23:51:51.862Z,8.83
2018-09-01T23:54:18.773Z,7.87
2018-09-01T23:56:45.684Z,8.00
2018-09-01T23:59:12.613Z,7.97
